Latest Weather Observations for Winton

IDQ60801

Issued at 1:02 pm EST Wednesday 1 April 2015 (issued every 30 minutes, with the page automatically refreshed every 10 minutes)

About weather observations | Map of weather stations | Latest weather observations for QLD | Other Formats
Station Details ID: 037039 Name: WINTON AIRPORT Lat: -22.36 Lon: 143.08 Height: 192.2 m
Data from the previous 72 hours. | See also: Recent months at Winton
Date/Time
EST
Temp
°C
App
Temp
°C
Dew
Point
Rel
Hum
%
Delta-T
°C
Wind Press
QNH
hPa
Press
MSL
hPa
Rain
since 9 am
mm
Dir
 
Spd
km/h
Gust
km/h
Spd
kts
Gust
kts
01/01:00pm 32.8 30.8 13.9 31 11.6 N 17 32 9 17 1013.6 1012.6 0.0
01/12:30pm 32.5 30.6 15.1 35 10.8 NNW 19 32 10 17 1014.2 1013.2 0.0
01/12:00pm 31.7 29.9 15.6 37 10.1 NNW 19 28 10 15 1015.0 1014.0 0.0
01/11:30am 30.9 29.6 17.2 43 8.7 NNW 20 30 11 16 1015.6 1014.6 0.0
01/11:00am 30.0 28.5 17.8 48 7.8 NNW 22 30 12 16 1016.2 1015.2 0.0
01/10:30am 28.6 26.8 17.8 52 6.9 NNW 24 35 13 19 1016.6 1015.6 0.0
01/10:00am 27.4 25.5 17.6 55 6.2 NNW 24 32 13 17 1017.0 1016.0 0.0
01/09:30am 26.6 24.6 17.4 57 5.8 NNW 24 33 13 18 1017.2 1015.9 0.0
01/09:00am 25.4 23.3 17.1 60 5.2 NNW 24 30 13 16 1017.2 1015.9 3.2
01/08:30am 24.3 22.4 16.6 62 4.8 NNW 22 28 12 15 1017.1 1015.8 3.2
01/08:00am 23.2 22.5 16.3 65 4.2 N 15 22 8 12 1017.0 1015.7 3.2
01/07:30am 22.1 22.2 16.4 70 3.5 N 11 15 6 8 1016.7 1015.4 3.2
01/07:00am 20.6 20.7 16.4 77 2.6 N 11 13 6 7 1016.2 1014.9 3.2
01/06:30am 20.5 21.2 16.1 76 2.7 NNW 7 11 4 6 1016.2 1014.9 3.2
01/06:00am 21.1 21.0 16.1 73 3.0 NNW 11 13 6 7 1015.8 1014.6 3.2
01/05:30am 22.0 21.2 16.1 69 3.6 N 15 20 8 11 1015.5 1014.3 3.2
01/05:00am 21.9 21.9 16.2 70 3.5 N 11 17 6 9 1015.2 1014.0 3.2
01/04:30am 21.9 21.6 16.4 71 3.4 N 13 15 7 8 1015.0 1013.8 3.2
01/04:00am 22.1 22.2 16.4 70 3.5 N 11 13 6 7 1014.9 1013.7 3.2
01/03:30am 22.4 22.3 16.0 67 3.9 N 11 15 6 8 1015.0 1013.8 3.2
01/03:00am 22.3 21.8 15.9 67 3.9 N 13 19 7 10 1015.1 1013.9 3.2
01/02:30am 22.6 21.7 15.9 66 4.1 N 15 20 8 11 1015.2 1014.0 3.2
01/02:00am 22.8 21.9 15.9 65 4.2 N 15 20 8 11 1015.6 1014.4 3.2
01/01:30am 22.9 23.3 16.4 67 4.0 N 9 15 5 8 1016.0 1014.7 3.2
01/01:00am 22.8 22.9 16.4 67 3.9 N 11 13 6 7 1016.1 1014.8 3.2
01/12:00am 23.1 24.6 16.6 67 4.0 N 4 4 2 2 1016.6 1015.3 3.2
 
Date/Time
EST
Temp
°C
App
Temp
°C
Dew
Point
Rel
Hum
%
Delta-T
°C
Wind Press
QNH
hPa
Press
MSL
hPa
Rain
since 9 am
mm
Dir
 
Spd
km/h
Gust
km/h
Spd
kts
Gust
kts
31/11:30pm 23.8 23.8 16.3 63 4.6 N 11 15 6 8 1016.6 1015.3 3.2
31/11:00pm 24.3 23.7 16.6 62 4.8 N 15 20 8 11 1016.5 1015.2 3.2
31/10:30pm 24.4 23.9 16.9 63 4.7 N 15 17 8 9 1016.7 1015.4 3.2
31/10:00pm 25.0 25.6 16.7 60 5.1 NNE 9 15 5 8 1017.1 1015.8 3.2
31/09:30pm 24.6 24.6 17.1 63 4.7 N 13 17 7 9 1016.6 1015.3 3.2
31/09:00pm 24.3 24.7 17.3 65 4.4 N 11 15 6 8 1016.6 1015.3 3.2
31/08:30pm 24.8 24.1 17.3 63 4.7 NNW 17 24 9 13 1016.1 1014.8 3.2
31/08:00pm 25.2 24.4 17.9 64 4.6 NNW 19 24 10 13 1015.7 1014.5 3.2
31/07:30pm 25.8 25.2 18.5 64 4.7 NNW 19 22 10 12 1015.5 1014.3 3.2
31/07:00pm 26.3 25.5 18.4 61 5.1 NNW 20 26 11 14 1015.3 1014.1 3.2
31/06:30pm 27.3 27.1 19.4 62 5.1 NNW 19 24 10 13 1014.6 1013.4 3.2
31/06:00pm 28.4 28.1 19.6 59 5.8 NNW 20 28 11 15 1014.2 1013.0 3.2
31/05:30pm 28.6 29.0 20.9 63 5.1 NNW 20 28 11 15 1014.0 1012.8 3.2
31/05:00pm 27.9 28.7 20.7 65 4.8 NNW 17 20 9 11 1013.9 1012.7 3.2
31/04:30pm 27.8 28.6 22.5 73 3.6 N 22 30 12 16 1013.8 1012.6 3.2
31/04:00pm 27.1 26.6 20.0 65 4.7 ENE 22 35 12 19 1014.5 1013.3 0.2
31/03:30pm 29.9 26.9 19.0 52 7.1 NNW 33 46 18 25 1013.8 1012.6 0.0
31/03:00pm 30.7 25.7 17.0 43 8.7 N 39 52 21 28 1013.6 1012.3 0.0
31/02:39pm 29.3 22.8 17.5 49 7.5 NNE 48 72 26 39 1014.2 1013.0 0.0
31/02:33pm 30.6 27.2 15.8 40 9.2 N 28 69 15 37 1014.2 1013.0 0.0
31/02:30pm 34.2 33.1 17.8 37 10.7 N 20 30 11 16 1014.0 1012.8 0.0
31/02:00pm 32.0 30.2 17.9 43 9.1 NNE 24 30 13 16 1014.3 1013.1 0.0
31/01:30pm 33.6 32.0 16.5 36 10.9 N 20 28 11 15 1014.7 1013.5 0.0
31/01:00pm 34.1 33.4 17.3 36 10.8 NNW 17 33 9 18 1015.3 1014.1 0.0
31/12:30pm 33.4 32.3 16.3 36 10.9 NNW 17 32 9 17 1016.1 1014.8 0.0
31/12:00pm 33.4 32.1 16.7 36 10.7 NNW 19 37 10 20 1016.6 1015.3 0.0
31/11:30am 32.9 31.4 16.7 38 10.3 NNW 20 32 11 17 1017.3 1016.0 0.0
31/11:00am 32.3 30.9 16.6 39 10.0 NNW 19 30 10 16 1018.0 1016.7 0.0
31/10:30am 31.7 30.2 16.8 40 9.5 NNW 20 30 11 16 1018.0 1016.7 0.0
31/10:00am 30.6 28.8 17.0 44 8.6 N 22 33 12 18 1018.2 1016.9 0.0
31/09:30am 29.2 28.1 17.4 49 7.5 N 19 26 10 14 1018.6 1017.4 0.0
31/09:00am 28.0 27.3 18.7 57 6.0 NNE 20 28 11 15 1018.7 1017.5 0.0
31/08:30am 27.2 26.7 19.0 61 5.3 NNE 20 28 11 15 1018.6 1017.4 0.0
31/08:00am 25.6 24.7 19.0 67 4.2 NE 22 28 12 15 1018.5 1017.3 0.0
31/07:30am 24.9 24.0 19.1 70 3.7 NE 22 30 12 16 1018.0 1016.7 0.0
31/07:00am 24.8 23.7 18.7 69 3.9 NE 22 30 12 16 1017.4 1016.1 0.0
31/06:30am 25.4 24.6 18.1 64 4.6 NE 19 26 10 14 1017.0 1015.7 0.0
31/06:00am 25.6 24.2 18.0 63 4.8 NE 22 28 12 15 1016.5 1015.2 0.0
31/05:30am 25.9 25.1 18.1 62 5.0 NE 19 26 10 14 1016.0 1014.7 0.0
31/05:00am 25.8 24.8 18.0 62 5.0 NE 20 28 11 15 1015.3 1014.1 0.0
31/04:30am 25.9 25.0 17.8 61 5.1 NE 19 24 10 13 1015.0 1013.8 0.0
31/04:00am 25.9 24.8 17.8 61 5.1 NE 20 26 11 14 1015.0 1013.8 0.0
31/03:30am 26.3 25.6 17.4 58 5.6 NE 17 22 9 12 1014.9 1013.7 0.0
31/03:00am 26.6 25.4 17.1 56 6.0 NE 19 22 10 12 1014.8 1013.6 0.0
31/02:30am 27.1 25.7 17.0 54 6.3 NE 20 26 11 14 1015.0 1013.8 0.0
31/02:00am 27.5 26.1 16.5 51 6.9 NNE 19 26 10 14 1015.1 1013.9 0.0
31/01:30am 27.9 26.2 16.2 49 7.3 NE 20 28 11 15 1015.3 1014.1 0.0
31/01:00am 28.2 26.4 16.1 47 7.5 NE 20 26 11 14 1015.5 1014.3 0.0
31/12:30am 28.6 27.1 16.2 47 7.7 NE 19 24 10 13 1015.8 1014.6 0.0
31/12:00am 29.1 28.4 16.3 46 8.0 NE 15 20 8 11 1016.0 1014.7 0.0
 
Date/Time
EST
Temp
°C
App
Temp
°C
Dew
Point
Rel
Hum
%
Delta-T
°C
Wind Press
QNH
hPa
Press
MSL
hPa
Rain
since 9 am
mm
Dir
 
Spd
km/h
Gust
km/h
Spd
kts
Gust
kts
30/11:30pm 29.5 29.5 16.3 45 8.3 NE 11 15 6 8 1016.2 1014.9 0.0
30/11:00pm 29.3 29.0 15.4 42 8.6 NE 11 15 6 8 1016.3 1015.0 0.0
30/10:30pm 29.2 29.5 15.0 42 8.7 NE 7 7 4 4 1016.5 1015.2 0.0
30/10:00pm 29.9 30.6 16.0 43 8.7 ENE 7 9 4 5 1016.4 1015.1 0.0
30/09:30pm 30.4 30.8 15.3 40 9.4 ENE 7 9 4 5 1016.3 1015.0 0.0
30/09:00pm 31.4 31.8 15.4 38 10.0 E 7 11 4 6 1016.1 1014.8 0.0
30/08:30pm 31.9 31.8 15.0 36 10.5 ENE 9 13 5 7 1016.0 1014.7 0.0
30/08:00pm 32.6 31.6 14.7 34 11.1 ENE 13 17 7 9 1015.7 1014.5 0.0
30/07:30pm 33.3 32.4 14.8 32 11.5 ENE 13 19 7 10 1015.3 1014.1 0.0
30/07:00pm 32.9 31.8 15.4 35 11.0 ENE 15 20 8 11 1015.2 1014.0 0.0
30/06:30pm 32.4 29.2 16.3 38 10.2 E 28 43 15 23 1015.1 1013.9 0.0
30/06:00pm 35.8 32.9 13.9 27 13.6 ENE 22 28 12 15 1014.6 1013.4 0.0
30/05:30pm 35.8 34.2 13.9 27 13.6 ENE 15 22 8 12 1014.3 1013.1 0.0
30/05:00pm 34.7 35.0 15.1 31 12.3 N 7 15 4 8 1014.2 1013.0 0.0
30/04:30pm 37.0 34.8 14.3 26 14.2 NNE 19 30 10 16 1014.0 1012.8 0.0
30/04:00pm 36.9 35.4 14.2 25 14.2 E 15 24 8 13 1013.9 1012.7 0.0
30/03:30pm 36.9 36.7 14.8 26 13.9 NNE 9 22 5 12 1014.0 1012.8 0.0
30/03:00pm 36.7 36.7 15.2 27 13.6 NNW 9 15 5 8 1014.4 1013.2 0.0
30/02:30pm 35.9 36.0 14.5 27 13.4 ENE 7 17 4 9 1014.7 1013.5 0.0
30/02:00pm 36.3 34.8 15.4 28 13.2 NNE 17 28 9 15 1015.2 1014.0 0.0
30/01:30pm 36.0 36.2 15.7 30 12.9 NNW 9 24 5 13 1015.6 1014.4 0.0
30/01:00pm 34.8 34.2 15.7 32 12.1 NNE 13 26 7 14 1016.0 1014.7 0.0
30/12:30pm 35.4 34.4 16.7 33 12.0 NNW 17 30 9 16 1016.5 1015.2 0.0
30/12:00pm 34.3 32.9 16.6 34 11.3 NNE 19 32 10 17 1017.2 1015.9 0.0
30/11:30am 33.4 32.1 16.7 36 10.7 N 19 32 10 17 1017.8 1016.5 0.0
30/11:00am 33.1 32.0 17.3 39 10.2 N 19 30 10 16 1018.3 1017.0 0.0
30/10:30am 32.5 31.3 17.5 40 9.7 N 20 30 11 16 1018.7 1017.5 0.0
30/10:00am 31.9 30.4 17.8 43 9.1 NNW 22 33 12 18 1018.8 1017.6 0.0
30/09:30am 30.6 27.8 17.3 45 8.5 NNW 28 37 15 20 1018.8 1017.6 0.0
30/09:00am 29.7 26.6 17.5 48 7.8 N 30 39 16 21 1018.6 1017.4 0.0
30/08:30am 29.1 26.4 17.6 50 7.3 N 28 35 15 19 1018.2 1016.9 0.0
30/08:00am 28.1 25.7 17.3 52 6.8 N 26 33 14 18 1017.9 1016.6 0.0
30/07:30am 27.3 25.9 16.9 53 6.5 N 20 30 11 16 1017.4 1016.1 0.0
30/07:00am 27.0 25.3 16.3 52 6.6 N 20 28 11 15 1017.2 1015.9 0.0
30/06:30am 27.0 25.3 16.3 52 6.7 N 20 24 11 13 1017.0 1015.7 0.0
30/06:00am 26.9 25.0 16.8 54 6.3 NNE 22 32 12 17 1016.9 1015.6 0.0
30/05:30am 26.8 24.6 17.0 55 6.2 NNE 24 33 13 18 1016.4 1015.1 0.0
30/05:00am 26.9 24.5 17.4 56 6.0 NE 26 37 14 20 1016.2 1014.9 0.0
30/04:30am 26.8 24.4 17.3 56 6.0 NE 26 35 14 19 1016.0 1014.7 0.0
30/04:00am 26.7 24.6 17.2 56 6.0 NE 24 30 13 16 1015.7 1014.5 0.0
30/03:30am 26.8 24.4 17.3 56 6.0 ENE 26 37 14 20 1015.7 1014.5 0.0
30/03:00am 26.9 24.8 17.1 55 6.2 ENE 24 32 13 17 1015.8 1014.6 0.0
30/02:30am 27.0 24.8 16.9 54 6.3 ENE 24 35 13 19 1016.1 1014.8 0.0
30/02:00am 27.6 24.1 16.6 51 6.9 ENE 30 37 16 20 1016.3 1015.0 0.0
30/01:30am 28.0 25.6 16.3 49 7.3 ENE 24 33 13 18 1016.8 1015.5 0.0
30/01:00am 28.3 25.7 16.9 50 7.2 ENE 26 33 14 18 1016.8 1015.5 0.0
30/12:30am 28.8 27.5 16.7 48 7.6 E 19 24 10 13 1017.0 1015.7 0.0
30/12:00am 29.5 28.2 16.7 46 8.1 E 19 30 10 16 1017.1 1015.8 0.0
 
Date/Time
EST
Temp
°C
App
Temp
°C
Dew
Point
Rel
Hum
%
Delta-T
°C
Wind Press
QNH
hPa
Press
MSL
hPa
Rain
since 9 am
mm
Dir
 
Spd
km/h
Gust
km/h
Spd
kts
Gust
kts
29/11:30pm 27.6 26.6 12.4 39 8.9 E 9 15 5 8 1017.0 1015.7 0.0
29/11:00pm 28.6 27.4 11.6 34 9.9 NE 9 11 5 6 1016.6 1015.3 0.0
29/10:30pm 29.4 28.4 12.3 34 10.1 NNE 9 9 5 5 1016.7 1015.4 0.0
29/10:00pm 30.4 29.0 12.3 33 10.7 NNE 11 13 6 7 1016.8 1015.5 0.0
29/09:30pm 31.2 29.9 12.5 31 11.1 NE 11 15 6 8 1016.6 1015.3 0.0
29/09:00pm 31.8 30.7 13.1 32 11.3 NE 11 13 6 7 1016.4 1015.1 0.0
29/08:30pm 32.4 31.3 13.1 31 11.7 NNE 11 13 6 7 1016.2 1014.9 0.0
29/08:00pm 33.2 31.8 13.3 30 12.1 NE 13 17 7 9 1016.0 1014.7 0.0
29/07:30pm 33.8 32.4 13.3 29 12.5 NNE 13 17 7 9 1015.5 1014.3 0.0
29/07:00pm 34.6 33.6 13.4 28 13.0 NE 11 15 6 8 1015.1 1013.9 0.0
29/06:30pm 35.4 33.7 13.5 26 13.5 NE 15 20 8 11 1014.6 1013.4 0.0
29/06:00pm 36.3 35.0 13.7 25 14.0 NNE 13 19 7 10 1014.3 1013.1 0.0
29/05:30pm 36.9 35.6 13.6 24 14.4 NNE 13 22 7 12 1014.1 1012.9 0.0
29/05:00pm 36.9 36.3 13.6 24 14.4 NNE 9 19 5 10 1014.0 1012.8 0.0
29/04:30pm 37.6 37.2 14.2 25 14.6 NNE 9 22 5 12 1013.8 1012.6 0.0
29/04:00pm 36.2 34.5 13.6 25 13.9 NNE 15 20 8 11 1013.9 1012.7 0.0
29/03:30pm 37.1 35.8 13.8 25 14.5 N 13 28 7 15 1013.8 1012.6 0.0
29/03:00pm 37.2 36.8 15.1 27 14.0 NNE 11 26 6 14 1014.1 1012.9 0.0
29/02:30pm 36.7 36.5 14.6 26 13.9 NE 9 20 5 11 1014.6 1013.4 0.0
29/02:00pm 36.3 36.0 14.3 27 13.7 NNE 9 20 5 11 1015.1 1013.9 0.0
29/01:30pm 36.1 35.9 14.7 28 13.4 NE 9 20 5 11 1015.6 1014.4 0.0

Other Formats:

Comma delimited format used in spreadsheet applications
http://www.bom.gov.au/fwo/IDQ60801/IDQ60801.94342.axf

JavaScript Object Notation format (JSON) in row-major order
http://www.bom.gov.au/fwo/IDQ60801/IDQ60801.94342.json